createdAt,value
2023-04-22T00:02:41.674Z,6.97
2023-04-22T00:07:48.658Z,6.50
2023-04-22T00:12:50.350Z,6.65
2023-04-22T00:17:52.210Z,6.60
2023-04-22T00:22:53.919Z,6.28
2023-04-22T00:27:55.815Z,6.47
2023-04-22T00:32:57.619Z,6.00
2023-04-22T00:37:59.408Z,5.90
2023-04-22T00:43:01.996Z,5.80
2023-04-22T00:48:04.001Z,6.20
2023-04-22T00:53:05.933Z,6.57
2023-04-22T00:58:08.159Z,6.22
2023-04-22T01:03:13.103Z,5.97
2023-04-22T01:08:15.206Z,6.10
2023-04-22T01:13:17.152Z,5.75
2023-04-22T01:18:20.889Z,6.27
2023-04-22T01:23:22.851Z,5.73
2023-04-22T01:28:27.181Z,6.13
2023-04-22T01:33:33.804Z,6.23
2023-04-22T01:38:38.082Z,6.40
2023-04-22T01:43:42.804Z,6.57
2023-04-22T01:48:50.370Z,6.20
2023-04-22T01:53:54.573Z,6.00
2023-04-22T01:58:58.774Z,6.40
2023-04-22T02:04:02.694Z,6.00
2023-04-22T02:09:11.715Z,6.63
2023-04-22T02:14:13.733Z,5.90
2023-04-22T02:19:22.418Z,5.30
2023-04-22T02:24:24.084Z,6.13
2023-04-22T02:29:26.133Z,6.00
2023-04-22T02:34:31.921Z,5.93
2023-04-22T02:39:33.743Z,6.20
2023-04-22T02:44:36.318Z,6.10
2023-04-22T02:49:40.293Z,6.13
2023-04-22T02:54:42.206Z,6.70
2023-04-22T02:59:46.604Z,5.90
2023-04-22T03:04:54.424Z,6.27
2023-04-22T03:09:56.357Z,6.37
2023-04-22T03:14:58.787Z,6.57
2023-04-22T03:20:05.128Z,6.63
2023-04-22T03:25:07.216Z,6.90
2023-04-22T03:30:12.004Z,7.00
2023-04-22T03:35:13.910Z,6.50
2023-04-22T03:40:20.438Z,6.40
2023-04-22T03:45:23.377Z,7.10
2023-04-22T03:50:49.926Z,6.83
2023-04-22T03:55:52.392Z,6.90
2023-04-22T04:00:54.361Z,7.63
2023-04-22T04:05:56.121Z,7.53
2023-04-22T04:10:58.061Z,6.80
2023-04-22T04:16:01.102Z,7.30
2023-04-22T04:21:09.520Z,6.60
2023-04-22T04:26:16.745Z,7.13
2023-04-22T04:31:24.789Z,7.37
2023-04-22T04:36:29.467Z,7.63
2023-04-22T04:41:43.401Z,7.87
2023-04-22T04:46:46.734Z,7.65
2023-04-22T04:51:49.324Z,7.67
2023-04-22T04:56:53.651Z,7.57
2023-04-22T05:01:58.064Z,7.50
2023-04-22T05:07:05.895Z,7.70
2023-04-22T05:12:12.946Z,8.67
2023-04-22T05:17:14.722Z,9.30
2023-04-22T05:22:17.997Z,8.20
2023-04-22T05:27:22.156Z,9.27
2023-04-22T05:32:23.932Z,8.33
2023-04-22T05:37:26.368Z,8.27
2023-04-22T05:42:33.251Z,8.70
2023-04-22T05:47:35.381Z,8.87
2023-04-22T05:52:38.223Z,8.97
2023-04-22T05:57:51.510Z,8.23
2023-04-22T06:03:07.327Z,8.38
2023-04-22T06:08:10.895Z,8.57
2023-04-22T06:13:12.612Z,7.97
2023-04-22T06:18:17.501Z,7.97
2023-04-22T06:23:19.728Z,9.05
2023-04-22T06:28:22.539Z,8.25
2023-04-22T06:33:28.122Z,8.52
2023-04-22T06:38:30.293Z,8.90
2023-04-22T06:43:54.464Z,9.18
2023-04-22T06:49:19.576Z,9.27
2023-04-22T06:54:42.173Z,9.23
2023-04-22T06:59:46.732Z,9.73
2023-04-22T07:04:49.539Z,8.70
2023-04-22T07:09:51.307Z,9.30
2023-04-22T07:14:55.265Z,8.73
2023-04-22T07:19:57.065Z,9.43
2023-04-22T07:25:01.299Z,9.40
2023-04-22T07:30:05.726Z,9.45
2023-04-22T07:35:10.961Z,9.15
2023-04-22T07:40:14.880Z,8.63
2023-04-22T07:45:16.694Z,8.93
2023-04-22T07:50:20.815Z,8.77
2023-04-22T07:55:27.495Z,8.73
2023-04-22T08:00:29.407Z,8.25
2023-04-22T08:05:32.654Z,8.35
2023-04-22T08:10:36.958Z,8.10
2023-04-22T08:15:41.319Z,8.10
2023-04-22T08:20:43.077Z,7.32
2023-04-22T08:25:48.130Z,7.53
2023-04-22T08:30:52.062Z,7.85
2023-04-22T08:35:53.842Z,8.27
2023-04-22T08:40:59.083Z,8.57
2023-04-22T08:46:05.670Z,7.88
2023-04-22T08:51:08.686Z,9.13
2023-04-22T08:56:12.758Z,8.85
2023-04-22T09:01:15.446Z,8.02
2023-04-22T09:06:20.092Z,7.72
2023-04-22T09:11:22.342Z,8.35
2023-04-22T09:16:24.218Z,8.00
2023-04-22T09:21:29.935Z,8.07
2023-04-22T09:26:31.901Z,7.90
2023-04-22T09:31:38.230Z,8.23
2023-04-22T09:36:42.933Z,8.25
2023-04-22T09:41:47.143Z,8.77
2023-04-22T09:46:51.302Z,9.38
2023-04-22T09:51:59.243Z,8.57
2023-04-22T09:57:02.555Z,9.43
2023-04-22T10:02:04.638Z,8.68
2023-04-22T10:07:11.292Z,9.07
2023-04-22T10:12:15.119Z,8.63
2023-04-22T10:17:20.071Z,9.35
2023-04-22T10:22:24.669Z,8.55
2023-04-22T10:27:28.979Z,7.50
2023-04-22T10:32:31.074Z,8.18
2023-04-22T10:37:33.840Z,7.45
2023-04-22T10:42:36.194Z,7.53
2023-04-22T10:47:42.664Z,7.75
2023-04-22T10:52:51.046Z,6.93
2023-04-22T10:57:55.560Z,8.85
2023-04-22T11:03:10.794Z,7.60
2023-04-22T11:08:16.654Z,6.50
2023-04-22T11:13:21.654Z,6.93
2023-04-22T11:18:27.455Z,7.07
2023-04-22T11:23:29.241Z,6.13
2023-04-22T11:28:31.467Z,5.95
2023-04-22T11:33:38.511Z,5.90
2023-04-22T11:38:40.249Z,5.40
2023-04-22T11:43:54.850Z,4.85
2023-04-22T11:49:12.480Z,4.75
2023-04-22T11:54:14.432Z,4.88
2023-04-22T11:59:18.335Z,4.55
2023-04-22T12:04:23.552Z,4.57
2023-04-22T12:09:26.069Z,4.10
2023-04-22T12:14:37.591Z,3.70
2023-04-22T12:19:39.622Z,3.70
2023-04-22T12:24:46.318Z,3.33
2023-04-22T12:29:57.805Z,3.35
2023-04-22T12:34:59.572Z,3.60
2023-04-22T12:40:01.298Z,3.35
2023-04-22T12:45:03.533Z,3.05
2023-04-22T12:50:09.618Z,3.45
2023-04-22T12:55:13.857Z,3.10
2023-04-22T13:00:18.316Z,3.47
2023-04-22T13:05:20.295Z,2.70
2023-04-22T13:10:24.410Z,3.25
2023-04-22T13:15:31.722Z,2.38
2023-04-22T13:20:36.162Z,2.45
2023-04-22T13:25:42.795Z,2.17
2023-04-22T13:30:44.670Z,2.30
2023-04-22T13:35:46.640Z,1.77
2023-04-22T13:40:51.164Z,2.20
2023-04-22T13:45:53.042Z,2.22
2023-04-22T13:50:54.812Z,2.15
2023-04-22T13:55:56.701Z,1.67
2023-04-22T14:01:00.620Z,2.40
2023-04-22T14:06:03.775Z,2.15
2023-04-22T14:11:09.113Z,1.88
2023-04-22T14:16:12.076Z,1.80
2023-04-22T14:21:16.300Z,1.90
2023-04-22T14:26:20.863Z,2.00
2023-04-22T14:31:24.247Z,2.33
2023-04-22T14:36:27.016Z,2.00
2023-04-22T14:41:30.961Z,1.67
2023-04-22T14:46:32.727Z,1.58
2023-04-22T14:51:35.464Z,1.70
2023-04-22T14:56:42.414Z,1.80
2023-04-22T15:01:46.723Z,1.70
2023-04-22T15:06:48.468Z,1.35
2023-04-22T15:11:51.009Z,2.67
2023-04-22T15:16:52.823Z,1.90
2023-04-22T15:21:54.834Z,1.70
2023-04-22T15:26:56.920Z,1.70
2023-04-22T15:32:04.545Z,1.70
2023-04-22T15:37:09.355Z,1.90
2023-04-22T15:42:16.256Z,2.22
2023-04-22T15:47:20.052Z,2.20
2023-04-22T15:52:24.318Z,2.50
2023-04-22T15:57:28.628Z,2.00
2023-04-22T16:02:32.736Z,2.35
2023-04-22T16:07:39.133Z,2.30
2023-04-22T16:12:42.021Z,1.88
2023-04-22T16:17:44.349Z,2.33
2023-04-22T16:22:48.477Z,3.20
2023-04-22T16:27:50.365Z,3.13
2023-04-22T16:32:52.130Z,3.50
2023-04-22T16:37:56.028Z,3.17
2023-04-22T16:43:05.172Z,3.42
2023-04-22T16:48:06.871Z,3.17
2023-04-22T16:53:09.968Z,3.90
2023-04-22T16:58:12.374Z,3.50
2023-04-22T17:03:14.421Z,3.47
2023-04-22T17:08:19.680Z,2.75
2023-04-22T17:13:26.107Z,3.28
2023-04-22T17:18:28.441Z,3.10
2023-04-22T17:23:30.120Z,2.53
2023-04-22T17:28:34.451Z,3.30
2023-04-22T17:33:39.905Z,3.70
2023-04-22T17:38:41.697Z,4.45
2023-04-22T17:43:43.465Z,6.40
2023-04-22T17:48:46.698Z,9.13
2023-04-22T17:53:53.326Z,9.18
2023-04-22T17:58:59.397Z,9.63
2023-04-22T18:04:01.514Z,11.43
2023-04-22T18:09:05.794Z,12.40
2023-04-22T18:14:08.104Z,13.85
2023-04-22T18:19:09.865Z,15.05
2023-04-22T18:24:14.846Z,17.20
2023-04-22T18:29:16.585Z,14.75
2023-04-22T18:34:18.403Z,12.52
2023-04-22T18:39:22.691Z,13.60
2023-04-22T18:44:24.408Z,13.63
2023-04-22T18:49:28.504Z,15.02
2023-04-22T18:54:32.699Z,15.52
2023-04-22T18:59:36.660Z,15.23
2023-04-22T19:04:40.932Z,15.98
2023-04-22T19:09:43.052Z,14.35
2023-04-22T19:14:50.057Z,15.10
2023-04-22T19:19:54.914Z,16.27
2023-04-22T19:24:58.610Z,16.90
2023-04-22T19:30:01.073Z,17.13
2023-04-22T19:35:08.949Z,16.92
2023-04-22T19:40:11.105Z,18.73
2023-04-22T19:45:15.264Z,17.75
2023-04-22T19:50:17.800Z,18.52
2023-04-22T19:55:22.807Z,16.90
2023-04-22T20:00:25.122Z,16.65
2023-04-22T20:05:27.363Z,15.48
2023-04-22T20:10:34.915Z,13.27
2023-04-22T20:15:39.931Z,14.75
2023-04-22T20:20:46.322Z,14.63
2023-04-22T20:25:49.578Z,15.20
2023-04-22T20:30:53.730Z,14.90
2023-04-22T20:35:55.847Z,13.90
2023-04-22T20:40:59.196Z,17.08
2023-04-22T20:46:01.701Z,14.90
2023-04-22T20:51:06.816Z,17.20
2023-04-22T20:56:08.919Z,17.65
2023-04-22T21:01:16.254Z,19.05
2023-04-22T21:06:22.580Z,20.13
2023-04-22T21:11:27.384Z,20.23
2023-04-22T21:16:36.364Z,21.05
2023-04-22T21:21:39.036Z,21.20
2023-04-22T21:26:43.157Z,21.92
2023-04-22T21:32:04.998Z,22.10
2023-04-22T21:37:12.822Z,25.15
2023-04-22T21:42:14.572Z,27.67
2023-04-22T21:47:18.802Z,28.77
2023-04-22T21:52:20.521Z,30.13
2023-04-22T21:57:22.474Z,39.72
2023-04-22T22:02:26.703Z,50.83
2023-04-22T22:07:34.493Z,54.95
2023-04-22T22:12:36.499Z,54.53
2023-04-22T22:17:40.141Z,50.65
2023-04-22T22:22:45.954Z,54.92
2023-04-22T22:27:49.108Z,46.83
2023-04-22T22:32:51.132Z,41.22
2023-04-22T22:37:52.878Z,42.58
2023-04-22T22:42:54.626Z,40.78
2023-04-22T22:47:58.628Z,41.15
2023-04-22T22:53:02.890Z,44.22
2023-04-22T22:58:06.810Z,38.17
2023-04-22T23:03:09.885Z,35.38
2023-04-22T23:08:14.749Z,30.65
2023-04-22T23:13:16.481Z,26.95
2023-04-22T23:18:20.673Z,27.00
2023-04-22T23:23:23.196Z,22.05
2023-04-22T23:28:25.136Z,20.77
2023-04-22T23:33:28.209Z,17.77
2023-04-22T23:38:33.004Z,11.02
2023-04-22T23:43:34.807Z,9.40
2023-04-22T23:48:38.871Z,9.60
2023-04-22T23:53:42.750Z,9.38
2023-04-22T23:58:47.604Z,10.10
